Time;durP1;ratioP1;P1;durP2;ratioP2;P2;SDS_P1;SDS_P2;PMS_P1;PMS_P2;Temp;Humidity;BMP_temperature;BMP_pressure;BME280_temperature;BME280_humidity;BME280_pressure;Samples;Min_cycle;Max_cycle;Signal;HPM_P1;HPM_P2
2023/05/24 00:00:23;;;;;;;2.58;2.38;;;24.40;50.70;;;;;;5074007;28;20076;-60
2023/05/24 00:02:50;;;;;;;3.90;2.97;;;24.30;50.60;;;;;;5073417;28;20136;-61
2023/05/24 00:05:17;;;;;;;3.33;3.03;;;24.30;50.70;;;;;;5073263;28;20143;-60
2023/05/24 00:07:44;;;;;;;3.67;3.00;;;24.30;50.70;;;;;;5072685;28;20055;-60
2023/05/24 00:10:12;;;;;;;3.20;2.90;;;24.30;50.70;;;;;;5073821;28;20460;-61
2023/05/24 00:12:39;;;;;;;4.07;2.67;;;24.30;50.70;;;;;;5073619;28;20451;-61
2023/05/24 00:15:07;;;;;;;3.40;2.90;;;24.30;50.70;;;;;;5073033;28;20106;-60
2023/05/24 00:17:39;;;;;;;3.13;2.67;;;24.30;50.70;;;;;;5072415;28;20481;-61
2023/05/24 00:20:11;;;;;;;2.90;2.70;;;24.30;50.70;;;;;;5072451;28;20049;-61
2023/05/24 00:22:39;;;;;;;2.80;2.60;;;24.30;50.80;;;;;;5072620;28;20044;-61
2023/05/24 00:25:06;;;;;;;2.75;2.55;;;24.30;50.80;;;;;;5073037;28;20044;-61
2023/05/24 00:27:36;;;;;;;2.83;2.63;;;24.30;50.80;;;;;;5073143;28;20131;-61
2023/05/24 00:30:04;;;;;;;2.72;2.50;;;24.30;50.80;;;;;;5072131;28;20123;-61
2023/05/24 00:32:31;;;;;;;2.80;2.10;;;24.30;50.80;;;;;;5073010;28;20084;-61
2023/05/24 00:34:59;;;;;;;2.85;2.60;;;24.30;50.90;;;;;;5072069;28;20048;-61
2023/05/24 00:37:26;;;;;;;2.55;2.35;;;24.20;50.80;;;;;;5072295;28;20563;-60
2023/05/24 00:39:53;;;;;;;2.75;2.55;;;24.20;50.80;;;;;;5071833;28;20084;-61
2023/05/24 00:42:20;;;;;;;2.85;2.45;;;24.20;50.90;;;;;;5072990;28;20116;-60
2023/05/24 00:44:47;;;;;;;3.10;2.30;;;24.20;50.90;;;;;;5069344;28;20045;-61
2023/05/24 00:47:15;;;;;;;2.28;2.17;;;24.20;50.90;;;;;;5072211;28;20052;-60
2023/05/24 00:49:43;;;;;;;2.35;2.15;;;24.20;50.90;;;;;;5070181;28;20084;-61
2023/05/24 00:52:10;;;;;;;2.75;2.50;;;24.20;50.90;;;;;;5072382;28;20140;-61
2023/05/24 00:54:39;;;;;;;2.70;2.50;;;24.20;50.90;;;;;;5072761;28;20044;-61
2023/05/24 00:57:06;;;;;;;3.17;2.75;;;24.20;50.90;;;;;;5072173;28;20102;-61
2023/05/24 00:59:34;;;;;;;3.00;2.45;;;24.20;51.00;;;;;;5072113;28;20524;-61
2023/05/24 01:02:01;;;;;;;2.45;2.25;;;24.20;50.90;;;;;;5072657;28;20143;-61
2023/05/24 01:04:31;;;;;;;2.95;2.60;;;24.20;51.00;;;;;;5072179;28;20512;-61
2023/05/24 01:07:25;;;;;;;2.33;2.13;;;24.20;51.00;;;;;;5073075;28;20481;-60
2023/05/24 01:10:04;;;;;;;3.30;3.00;;;24.20;51.00;;;;;;5071740;28;20393;-61
2023/05/24 01:12:58;;;;;;;2.20;2.10;;;24.20;50.90;;;;;;5073089;28;20048;-60
2023/05/24 01:15:59;;;;;;;3.10;2.30;;;24.20;51.00;;;;;;5071894;28;20045;-60
2023/05/24 01:18:38;;;;;;;2.33;2.17;;;24.20;51.00;;;;;;5072568;28;20045;-60
2023/05/24 01:21:31;;;;;;;2.70;2.50;;;24.20;51.00;;;;;;5072639;28;20091;-60
2023/05/24 01:24:29;;;;;;;2.40;2.20;;;24.20;50.90;;;;;;5072450;28;20480;-61
2023/05/24 01:27:10;;;;;;;3.10;2.40;;;24.20;50.90;;;;;;5072262;28;20472;-61
2023/05/24 01:29:38;;;;;;;2.80;2.60;;;24.20;51.00;;;;;;5071865;28;20489;-61
2023/05/24 01:32:06;;;;;;;4.25;2.65;;;24.10;50.90;;;;;;5071809;28;20485;-61
2023/05/24 01:34:33;;;;;;;2.50;2.30;;;24.10;50.90;;;;;;5071263;28;20377;-60
2023/05/24 01:37:00;;;;;;;4.68;3.05;;;24.10;50.90;;;;;;5072646;28;20058;-61
2023/05/24 01:39:29;;;;;;;2.70;2.50;;;24.10;51.00;;;;;;5070527;28;20491;-61
2023/05/24 01:42:26;;;;;;;2.83;2.53;;;24.10;51.00;;;;;;5070862;28;20135;-61
2023/05/24 01:45:15;;;;;;;2.78;2.38;;;24.10;51.00;;;;;;5070756;28;20079;-61
2023/05/24 01:48:17;;;;;;;2.50;2.30;;;24.10;51.00;;;;;;5072031;28;20487;-62
2023/05/24 01:50:51;;;;;;;2.78;2.58;;;24.10;51.00;;;;;;5072004;28;20040;-61
2023/05/24 01:53:19;;;;;;;2.65;2.45;;;24.10;51.10;;;;;;5072042;28;20052;-61
2023/05/24 01:55:50;;;;;;;2.88;2.38;;;24.10;51.10;;;;;;5073670;28;20443;-61
2023/05/24 01:58:21;;;;;;;2.58;2.47;;;24.10;51.10;;;;;;5075954;28;20041;-61
2023/05/24 02:00:52;;;;;;;5.95;2.55;;;24.10;51.10;;;;;;5075797;28;20113;-61
2023/05/24 02:03:20;;;;;;;2.60;2.40;;;24.10;51.10;;;;;;5075205;28;20098;-61
2023/05/24 02:05:48;;;;;;;2.80;2.60;;;24.10;51.10;;;;;;5075775;28;20053;-61
2023/05/24 02:08:16;;;;;;;2.30;2.10;;;24.10;51.10;;;;;;5076320;28;20473;-61
2023/05/24 02:10:43;;;;;;;2.30;2.20;;;24.10;51.10;;;;;;5075455;28;20052;-61
2023/05/24 02:13:10;;;;;;;3.05;2.78;;;24.00;51.10;;;;;;5075608;28;20102;-61
2023/05/24 02:15:40;;;;;;;2.72;2.53;;;24.10;51.20;;;;;;5073676;28;20049;-60
2023/05/24 02:18:07;;;;;;;2.30;2.00;;;24.10;51.20;;;;;;5075224;28;20048;-61
2023/05/24 02:20:37;;;;;;;2.45;2.20;;;24.00;51.10;;;;;;5075565;28;20044;-60
2023/05/24 02:23:05;;;;;;;;;;;24.10;51.70;;;;;;5076260;28;20045;-60
2023/05/24 02:25:32;;;;;;;2.92;2.72;;;24.10;51.20;;;;;;5075819;28;19924;-61
2023/05/24 02:27:59;;;;;;;2.80;2.60;;;24.10;51.70;;;;;;5074140;28;20049;-61
2023/05/24 02:30:27;;;;;;;2.75;2.55;;;24.10;51.20;;;;;;5074814;28;20052;-61
2023/05/24 02:32:54;;;;;;;3.00;2.42;;;24.00;51.10;;;;;;5075097;28;20097;-61
2023/05/24 02:35:22;;;;;;;2.55;2.40;;;24.10;51.20;;;;;;5075976;28;20412;-61
2023/05/24 02:37:49;;;;;;;3.50;3.20;;;24.10;51.20;;;;;;5075745;28;20122;-61
2023/05/24 02:40:16;;;;;;;2.63;2.42;;;24.10;51.20;;;;;;5075348;28;20129;-61
2023/05/24 02:42:43;;;;;;;2.97;2.75;;;24.10;51.20;;;;;;5075377;28;20080;-61
2023/05/24 02:45:10;;;;;;;2.83;2.63;;;24.10;51.20;;;;;;5075234;28;20127;-61
2023/05/24 02:47:37;;;;;;;2.50;2.30;;;24.00;51.10;;;;;;5076037;28;20127;-61
2023/05/24 02:50:05;;;;;;;3.42;3.13;;;24.10;51.20;;;;;;5074249;28;20080;-61
2023/05/24 02:52:32;;;;;;;3.13;2.58;;;24.10;51.20;;;;;;5074452;28;20531;-61
2023/05/24 02:54:59;;;;;;;2.50;2.30;;;24.10;51.20;;;;;;5070307;28;20045;-61
2023/05/24 02:57:27;;;;;;;3.15;2.95;;;24.10;51.10;;;;;;5054568;28;20135;-61
2023/05/24 02:59:54;;;;;;;2.97;2.60;;;24.10;51.10;;;;;;5054518;28;20049;-61
2023/05/24 03:02:22;;;;;;;3.25;2.95;;;24.10;51.10;;;;;;5054900;28;20231;-61
2023/05/24 03:04:49;;;;;;;2.13;2.03;;;24.00;51.10;;;;;;5054382;28;20486;-60
2023/05/24 03:07:17;;;;;;;2.72;2.42;;;24.00;51.10;;;;;;5052891;28;20138;-61
2023/05/24 03:09:45;;;;;;;2.78;2.58;;;24.00;51.10;;;;;;5070869;28;20080;-61
2023/05/24 03:12:12;;;;;;;2.85;2.65;;;24.00;51.10;;;;;;5074254;28;20139;-61
2023/05/24 03:14:40;;;;;;;2.70;2.38;;;24.00;51.10;;;;;;5073251;28;20044;-61
2023/05/24 03:17:07;;;;;;;2.75;2.55;;;24.00;51.10;;;;;;5073861;28;20075;-61
2023/05/24 03:19:34;;;;;;;3.22;2.47;;;24.00;51.10;;;;;;5075041;28;20053;-61
2023/05/24 03:22:01;;;;;;;2.67;2.47;;;24.00;51.10;;;;;;5075470;28;20087;-61
2023/05/24 03:24:28;;;;;;;3.13;2.67;;;24.00;51.10;;;;;;5076070;28;20162;-61
2023/05/24 03:26:55;;;;;;;2.55;2.35;;;24.00;51.20;;;;;;5074514;28;20060;-60
2023/05/24 03:29:22;;;;;;;4.82;2.55;;;24.00;51.10;;;;;;5059736;28;20463;-61
2023/05/24 03:31:49;;;;;;;2.30;2.20;;;24.00;51.10;;;;;;5073831;28;20431;-60
2023/05/24 03:34:16;;;;;;;2.28;2.15;;;24.00;51.10;;;;;;5072487;28;20048;-60
2023/05/24 03:36:44;;;;;;;4.13;2.60;;;24.00;51.20;;;;;;5072892;28;20079;-61
2023/05/24 03:39:11;;;;;;;3.05;2.85;;;24.00;51.20;;;;;;5071576;28;20072;-61
2023/05/24 03:41:38;;;;;;;2.20;2.05;;;24.00;51.20;;;;;;5074072;28;20056;-61
2023/05/24 03:44:05;;;;;;;2.88;2.67;;;24.00;51.20;;;;;;5071922;28;20045;-61
2023/05/24 03:46:32;;;;;;;2.45;2.25;;;24.00;51.20;;;;;;5072944;28;20079;-61
2023/05/24 03:48:59;;;;;;;2.28;2.13;;;24.00;51.10;;;;;;5076089;28;20537;-61
2023/05/24 03:51:28;;;;;;;3.22;2.58;;;24.00;51.20;;;;;;5069823;28;20091;-61
2023/05/24 03:53:56;;;;;;;2.30;2.10;;;24.00;51.20;;;;;;5068522;28;20046;-60
2023/05/24 03:56:25;;;;;;;3.15;2.85;;;24.00;51.20;;;;;;5073565;28;20079;-60
2023/05/24 03:58:52;;;;;;;2.83;2.63;;;24.00;51.20;;;;;;5058343;28;20550;-61
2023/05/24 04:01:20;;;;;;;2.53;2.33;;;24.00;51.10;;;;;;5053630;28;20456;-61
2023/05/24 04:04:00;;;;;;;4.97;2.88;;;24.00;51.20;;;;;;5051853;28;20127;-61
2023/05/24 04:06:28;;;;;;;3.08;2.80;;;24.10;51.20;;;;;;5053114;28;20079;-61
2023/05/24 04:08:57;;;;;;;2.72;2.50;;;24.00;51.10;;;;;;5054358;28;20085;-60
2023/05/24 04:11:27;;;;;;;2.42;2.22;;;24.10;51.20;;;;;;5064019;28;20155;-61
2023/05/24 04:13:56;;;;;;;2.45;2.25;;;24.10;51.20;;;;;;5072674;28;20047;-61
2023/05/24 04:16:24;;;;;;;3.25;2.95;;;24.10;51.20;;;;;;5068916;28;20051;-61
2023/05/24 04:18:56;;;;;;;2.50;2.30;;;24.10;51.30;;;;;;5066988;28;20113;-61
2023/05/24 04:21:23;;;;;;;4.15;2.63;;;24.10;51.10;;;;;;5072503;28;20086;-64
2023/05/24 04:23:50;;;;;;;3.10;2.80;;;24.10;51.10;;;;;;5089788;28;20051;-65
2023/05/24 04:26:18;;;;;;;2.40;2.20;;;24.10;51.10;;;;;;5081678;28;20130;-64
2023/05/24 04:28:45;;;;;;;3.72;2.58;;;24.20;51.10;;;;;;5071583;28;20554;-63
2023/05/24 04:31:14;;;;;;;2.80;2.55;;;24.20;51.00;;;;;;5072499;28;20080;-61
2023/05/24 04:33:41;;;;;;;3.80;2.50;;;24.20;51.00;;;;;;5066680;28;20127;-68
2023/05/24 04:36:10;;;;;;;2.42;2.08;;;24.20;50.90;;;;;;5070161;28;20041;-61
2023/05/24 04:38:39;;;;;;;2.67;2.47;;;24.20;50.90;;;;;;5071651;28;20114;-64
2023/05/24 04:41:07;;;;;;;2.67;2.47;;;24.20;50.80;;;;;;5069445;28;20045;-62
2023/05/24 04:43:34;;;;;;;2.60;2.40;;;24.20;50.80;;;;;;5068551;28;20118;-63
2023/05/24 04:46:01;;;;;;;3.38;2.88;;;24.20;50.90;;;;;;5071225;28;20052;-62
2023/05/24 04:48:28;;;;;;;3.33;3.10;;;24.20;50.90;;;;;;5053658;28;20100;-64
2023/05/24 04:50:59;;;;;;;3.25;2.95;;;24.30;51.00;;;;;;5067316;28;20044;-65
2023/05/24 04:53:27;;;;;;;3.72;2.70;;;24.20;50.90;;;;;;5069607;28;20049;-66
2023/05/24 04:55:54;;;;;;;3.38;3.08;;;24.30;51.00;;;;;;5080385;28;20546;-61
2023/05/24 04:58:21;;;;;;;2.63;2.42;;;24.30;51.10;;;;;;5066960;28;20078;-63
2023/05/24 05:00:48;;;;;;;5.07;2.50;;;24.30;51.00;;;;;;5068838;28;20040;-62
2023/05/24 05:03:15;;;;;;;3.00;2.70;;;24.30;51.20;;;;;;5069893;28;20044;-61
2023/05/24 05:05:44;;;;;;;2.72;2.50;;;24.30;51.50;;;;;;5070504;28;20403;-67
2023/05/24 05:08:11;;;;;;;4.43;3.13;;;24.30;51.70;;;;;;5068196;28;20445;-61
2023/05/24 05:10:38;;;;;;;4.30;2.80;;;24.30;51.80;;;;;;5070508;28;20033;-59
2023/05/24 05:13:05;;;;;;;5.38;3.03;;;24.30;51.70;;;;;;5070897;28;20576;-60
2023/05/24 05:15:33;;;;;;;21.60;3.92;;;24.30;51.70;;;;;;5068267;28;20044;-60
2023/05/24 05:18:00;;;;;;;4.47;3.25;;;24.40;51.70;;;;;;5064086;28;20072;-61
2023/05/24 05:20:27;;;;;;;6.82;3.58;;;24.40;51.60;;;;;;5065352;28;20570;-60
2023/05/24 05:22:54;;;;;;;13.30;4.25;;;24.40;51.70;;;;;;5070931;28;20053;-64
2023/05/24 05:25:22;;;;;;;10.90;4.63;;;24.40;51.70;;;;;;5064031;28;20053;-63
2023/05/24 05:27:49;;;;;;;6.65;5.05;;;24.40;52.20;;;;;;5067389;28;20048;-62
2023/05/24 05:30:16;;;;;;;8.82;5.07;;;24.40;52.30;;;;;;5061287;28;20040;-61
2023/05/24 05:32:43;;;;;;;9.60;5.10;;;24.30;52.80;;;;;;5063907;28;20121;-62
2023/05/24 05:35:11;;;;;;;7.30;5.25;;;24.30;52.90;;;;;;5064212;28;20037;-60
2023/05/24 05:37:38;;;;;;;5.57;5.07;;;24.10;53.20;;;;;;5063373;28;20102;-61
2023/05/24 05:40:06;;;;;;;10.68;5.57;;;24.10;53.40;;;;;;5059142;28;20627;-62
2023/05/24 05:42:33;;;;;;;8.30;5.43;;;24.00;53.70;;;;;;5061016;28;20547;-61
2023/05/24 05:45:00;;;;;;;13.32;5.35;;;23.80;54.00;;;;;;5061080;28;20052;-61
2023/05/24 05:47:27;;;;;;;8.10;5.25;;;23.70;54.30;;;;;;5064907;28;20079;-60
2023/05/24 05:49:54;;;;;;;12.73;5.57;;;23.70;54.40;;;;;;5061269;28;20053;-64
2023/05/24 05:52:22;;;;;;;6.13;5.20;;;23.60;54.60;;;;;;5062188;28;20044;-63
2023/05/24 05:54:49;;;;;;;7.55;5.53;;;23.50;54.80;;;;;;5059850;28;20060;-62
2023/05/24 05:57:18;;;;;;;7.07;5.10;;;23.50;54.90;;;;;;5059436;28;20056;-63
2023/05/24 05:59:45;;;;;;;5.97;4.85;;;23.40;55.00;;;;;;5062011;28;20045;-62
2023/05/24 06:02:12;;;;;;;6.93;5.03;;;23.40;55.10;;;;;;5059147;28;20057;-62
2023/05/24 06:04:40;;;;;;;7.28;4.85;;;23.40;55.50;;;;;;5065919;28;20041;-64
2023/05/24 06:07:07;;;;;;;5.63;4.90;;;23.40;54.90;;;;;;5055023;28;20052;-65
2023/05/24 06:09:34;;;;;;;9.88;5.57;;;23.40;55.00;;;;;;5061454;28;20378;-64
2023/05/24 06:12:01;;;;;;;10.73;5.10;;;23.40;55.30;;;;;;5055912;28;20047;-62
2023/05/24 06:14:29;;;;;;;6.50;5.65;;;23.40;55.30;;;;;;5060743;28;20098;-65
2023/05/24 06:16:57;;;;;;;6.05;5.45;;;23.40;55.30;;;;;;5059349;28;20592;-64
2023/05/24 06:19:26;;;;;;;9.88;5.00;;;23.40;55.20;;;;;;5060317;28;20051;-64
2023/05/24 06:21:53;;;;;;;6.53;5.35;;;23.40;55.30;;;;;;5061413;28;20048;-63
2023/05/24 06:24:21;;;;;;;7.63;4.85;;;23.40;54.80;;;;;;5059989;28;20565;-62
2023/05/24 06:26:50;;;;;;;6.45;4.72;;;23.40;54.10;;;;;;5061647;28;20056;-63
2023/05/24 06:29:19;;;;;;;8.23;5.25;;;23.50;53.10;;;;;;5066451;28;20048;-61
2023/05/24 06:31:47;;;;;;;4.63;4.22;;;23.50;52.70;;;;;;5058293;28;20044;-61
2023/05/24 06:34:16;;;;;;;6.15;4.30;;;23.50;52.80;;;;;;5062297;28;20063;-67
2023/05/24 06:36:46;;;;;;;5.38;3.65;;;23.50;53.00;;;;;;5060843;28;20110;-67
2023/05/24 06:39:15;;;;;;;4.05;3.65;;;23.60;53.30;;;;;;5066314;28;20539;-67
2023/05/24 06:41:43;;;;;;;3.72;3.42;;;23.70;53.50;;;;;;5062476;28;20131;-67
2023/05/24 06:44:11;;;;;;;4.78;3.78;;;23.80;53.50;;;;;;5065855;28;20041;-68
2023/05/24 06:46:38;;;;;;;5.53;3.22;;;24.00;53.50;;;;;;5068934;28;20501;-68
2023/05/24 06:49:06;;;;;;;3.42;3.13;;;24.10;53.40;;;;;;5067357;28;20067;-68
2023/05/24 06:51:35;;;;;;;6.32;3.83;;;24.20;53.20;;;;;;5068021;28;20246;-69
2023/05/24 06:54:02;;;;;;;3.03;2.78;;;24.30;53.00;;;;;;5065805;28;20490;-69
2023/05/24 06:56:30;;;;;;;5.07;3.30;;;24.40;52.70;;;;;;5062026;28;20065;-70
2023/05/24 06:58:58;;;;;;;4.35;3.95;;;24.50;52.50;;;;;;5064724;28;20083;-69
2023/05/24 07:01:26;;;;;;;4.93;3.20;;;24.60;52.10;;;;;;5064846;28;20066;-67
2023/05/24 07:03:54;;;;;;;3.65;2.72;;;24.70;51.90;;;;;;5057688;28;20610;-66
2023/05/24 07:06:21;;;;;;;6.80;3.55;;;24.70;51.80;;;;;;5062526;28;20051;-68
2023/05/24 07:08:49;;;;;;;3.90;3.30;;;24.80;51.70;;;;;;5060882;28;20458;-68
2023/05/24 07:11:16;;;;;;;3.33;3.00;;;24.90;51.60;;;;;;5062022;28;20113;-68
2023/05/24 07:13:43;;;;;;;3.17;2.88;;;24.90;51.50;;;;;;5065381;28;20052;-67
2023/05/24 07:16:10;;;;;;;3.90;3.05;;;25.00;51.40;;;;;;5064210;28;20044;-68
2023/05/24 07:18:40;;;;;;;3.08;2.78;;;25.10;51.10;;;;;;5064600;28;20053;-68
2023/05/24 07:21:07;;;;;;;6.10;2.75;;;25.10;50.70;;;;;;5077456;28;20436;-70
2023/05/24 07:23:35;;;;;;;3.15;2.92;;;25.20;50.60;;;;;;5058852;28;20257;-67
2023/05/24 07:26:04;;;;;;;5.90;2.95;;;25.30;50.60;;;;;;5062735;28;20098;-69
2023/05/24 07:28:31;;;;;;;4.65;2.80;;;25.30;50.20;;;;;;5048639;28;20053;-69
2023/05/24 07:30:59;;;;;;;3.53;2.75;;;25.40;49.90;;;;;;5063652;28;20489;-68
2023/05/24 07:33:26;;;;;;;4.00;2.28;;;25.40;49.60;;;;;;5065654;28;20143;-68
2023/05/24 07:35:53;;;;;;;3.58;2.63;;;25.50;49.40;;;;;;5066269;28;20058;-69
2023/05/24 07:38:21;;;;;;;4.30;2.85;;;25.50;49.20;;;;;;5068093;28;20135;-68
2023/05/24 07:40:48;;;;;;;2.60;2.40;;;25.50;49.10;;;;;;5065568;28;20106;-69
2023/05/24 07:43:15;;;;;;;3.88;2.58;;;25.60;49.00;;;;;;5066561;28;20076;-69
2023/05/24 07:45:42;;;;;;;3.03;2.80;;;25.60;48.80;;;;;;5064591;28;20503;-69
2023/05/24 07:48:10;;;;;;;2.60;2.38;;;25.60;48.70;;;;;;5064120;28;20400;-69
2023/05/24 07:50:38;;;;;;;6.47;2.53;;;25.70;48.70;;;;;;5064902;28;20079;-68
2023/05/24 07:53:06;;;;;;;4.82;2.50;;;25.70;48.60;;;;;;5065537;28;20048;-68
2023/05/24 07:55:33;;;;;;;2.30;2.10;;;25.70;48.50;;;;;;5062438;28;20048;-69
2023/05/24 07:58:00;;;;;;;4.10;2.20;;;25.70;48.40;;;;;;5063758;28;20056;-69
2023/05/24 08:00:28;;;;;;;2.42;2.22;;;25.70;48.30;;;;;;5064303;28;20059;-69
2023/05/24 08:02:56;;;;;;;3.50;2.30;;;25.70;48.20;;;;;;5068976;28;20489;-68
2023/05/24 08:05:23;;;;;;;5.47;2.05;;;25.70;48.00;;;;;;5064588;28;20052;-68
2023/05/24 08:07:51;;;;;;;2.30;2.10;;;25.80;48.00;;;;;;5064954;28;20058;-68
2023/05/24 08:10:18;;;;;;;2.08;1.98;;;25.70;47.90;;;;;;5065726;28;20131;-68
2023/05/24 08:12:48;;;;;;;2.28;2.08;;;25.80;47.90;;;;;;5062089;28;20059;-69
2023/05/24 08:15:15;;;;;;;;;;;25.70;47.70;;;;;;5065766;28;20055;-69
2023/05/24 08:17:43;;;;;;;3.63;2.20;;;25.70;47.60;;;;;;5062164;28;19929;-68
2023/05/24 08:20:14;;;;;;;3.47;2.65;;;25.70;47.40;;;;;;5062363;28;20347;-69
2023/05/24 08:22:41;;;;;;;3.63;2.15;;;25.80;47.40;;;;;;5061575;28;20048;-68
2023/05/24 08:25:10;;;;;;;3.28;1.88;;;25.70;47.30;;;;;;5062019;28;20044;-69
2023/05/24 08:27:37;;;;;;;1.60;1.50;;;25.80;47.40;;;;;;5063597;28;20055;-66
2023/05/24 08:30:06;;;;;;;2.47;2.28;;;25.80;47.20;;;;;;5064137;28;20056;-68
2023/05/24 08:32:33;;;;;;;4.22;2.50;;;25.70;47.10;;;;;;5065098;28;20041;-68
2023/05/24 08:35:01;;;;;;;1.77;1.65;;;25.80;47.00;;;;;;5066746;28;20060;-68
2023/05/24 08:37:46;;;;;;;2.42;1.50;;;25.80;46.90;;;;;;5058285;28;20044;-69
2023/05/24 08:40:14;;;;;;;4.30;1.63;;;25.80;46.90;;;;;;5064489;28;20080;-69
2023/05/24 08:42:42;;;;;;;1.70;1.60;;;25.80;46.80;;;;;;5065311;28;20342;-69
2023/05/24 08:45:14;;;;;;;2.80;1.98;;;25.80;46.70;;;;;;5064715;28;20497;-68
2023/05/24 08:47:42;;;;;;;1.75;1.30;;;25.90;46.70;;;;;;5065812;28;20110;-68
2023/05/24 08:50:09;;;;;;;2.15;2.05;;;25.90;46.70;;;;;;5064876;28;20044;-68
2023/05/24 08:52:38;;;;;;;1.77;1.52;;;25.90;47.10;;;;;;5065176;28;20041;-68
2023/05/24 08:55:07;;;;;;;1.67;1.58;;;25.90;46.40;;;;;;5061874;28;20052;-68
2023/05/24 08:57:38;;;;;;;4.45;1.60;;;26.00;46.40;;;;;;5064789;28;20048;-68
2023/05/24 09:00:10;;;;;;;3.80;1.42;;;26.00;46.30;;;;;;5063701;28;20118;-69
2023/05/24 09:02:39;;;;;;;1.60;1.50;;;26.00;46.80;;;;;;5063937;28;20526;-69
2023/05/24 09:05:10;;;;;;;1.67;1.50;;;26.00;46.20;;;;;;5061837;28;20098;-68
2023/05/24 09:07:37;;;;;;;3.17;1.70;;;26.10;46.10;;;;;;5075532;28;20515;-68
2023/05/24 09:10:07;;;;;;;4.65;1.80;;;26.10;46.10;;;;;;5065351;28;20060;-67
2023/05/24 09:12:36;;;;;;;1.77;1.60;;;26.10;45.90;;;;;;5060874;28;20114;-70
2023/05/24 09:15:06;;;;;;;2.22;1.98;;;26.20;45.80;;;;;;5065895;28;20135;-69
2023/05/24 09:17:36;;;;;;;1.65;1.42;;;26.20;45.70;;;;;;5060418;28;20082;-69
2023/05/24 09:20:09;;;;;;;3.00;1.55;;;26.20;45.70;;;;;;5062300;28;20090;-70
2023/05/24 09:22:39;;;;;;;1.60;1.50;;;26.30;45.80;;;;;;5058564;28;20056;-69
2023/05/24 09:25:11;;;;;;;1.83;1.65;;;26.30;45.90;;;;;;5053879;28;20048;-69
2023/05/24 09:27:39;;;;;;;1.60;1.50;;;26.30;45.70;;;;;;5055997;28;21029;-68
2023/05/24 09:30:09;;;;;;;1.77;1.67;;;26.30;45.60;;;;;;5057824;28;20110;-68
2023/05/24 09:32:39;;;;;;;3.38;1.80;;;26.30;45.80;;;;;;5061561;28;20045;-68
2023/05/24 09:35:08;;;;;;;2.33;1.55;;;26.30;45.90;;;;;;5075032;28;20052;-67
2023/05/24 09:37:40;;;;;;;1.80;1.52;;;26.30;45.80;;;;;;5066118;28;20051;-67
2023/05/24 09:40:17;;;;;;;1.60;1.50;;;26.30;46.10;;;;;;5067211;28;20120;-68
2023/05/24 09:42:45;;;;;;;1.85;1.70;;;26.30;46.10;;;;;;5062051;28;20125;-67
2023/05/24 09:45:15;;;;;;;4.47;1.65;;;26.30;46.10;;;;;;5064753;28;20428;-67
2023/05/24 09:47:44;;;;;;;1.20;1.20;;;26.30;46.00;;;;;;5062063;28;20468;-68
2023/05/24 09:50:16;;;;;;;1.93;1.80;;;26.30;45.80;;;;;;5065841;28;20052;-68
2023/05/24 09:52:44;;;;;;;1.75;1.60;;;26.30;45.90;;;;;;5063213;28;20094;-69
2023/05/24 09:55:16;;;;;;;1.67;1.52;;;26.30;45.90;;;;;;5065787;28;20056;-69
2023/05/24 09:57:52;;;;;;;1.75;1.50;;;26.30;45.80;;;;;;5059381;28;20528;-68
2023/05/24 10:00:23;;;;;;;6.88;1.35;;;26.30;45.60;;;;;;5064679;28;20047;-71
2023/05/24 10:03:06;;;;;;;1.60;1.50;;;26.30;45.50;;;;;;5065604;28;20044;-67
2023/05/24 10:05:34;;;;;;;1.77;1.48;;;26.20;45.50;;;;;;5062224;28;20493;-69
2023/05/24 10:08:03;;;;;;;1.85;1.60;;;26.30;45.00;;;;;;5066835;28;20488;-71
2023/05/24 10:10:32;;;;;;;1.50;1.40;;;26.20;44.10;;;;;;5066557;28;20048;-71
2023/05/24 10:13:01;;;;;;;1.60;1.50;;;26.20;43.00;;;;;;5063437;28;20040;-71
2023/05/24 10:15:29;;;;;;;3.13;1.60;;;26.10;42.70;;;;;;5062044;28;20113;-70
2023/05/24 10:17:59;;;;;;;1.80;1.40;;;26.10;41.70;;;;;;5066210;28;20045;-70
2023/05/24 10:20:27;;;;;;;1.45;1.35;;;26.10;41.60;;;;;;5066821;28;20098;-69
2023/05/24 10:23:00;;;;;;;1.30;1.30;;;26.00;40.80;;;;;;5063309;28;20169;-69
2023/05/24 10:25:28;;;;;;;2.15;1.50;;;26.00;41.10;;;;;;5069159;28;20040;-67
2023/05/24 10:28:08;;;;;;;1.73;1.30;;;25.90;40.30;;;;;;5072146;28;20221;-68
2023/05/24 10:30:47;;;;;;;;;;;25.90;40.40;;;;;;5067688;28;20056;-68
2023/05/24 10:33:17;;;;;;;3.40;1.20;;;25.80;40.10;;;;;;5070089;28;19920;-69
2023/05/24 10:35:45;;;;;;;1.27;1.27;;;25.70;40.00;;;;;;5067452;28;20042;-69
2023/05/24 10:38:12;;;;;;;1.38;1.15;;;25.70;40.10;;;;;;5071004;28;20049;-69
2023/05/24 10:40:42;;;;;;;2.78;1.63;;;25.70;40.40;;;;;;5070100;28;20044;-69
2023/05/24 10:43:09;;;;;;;1.30;1.20;;;25.60;40.30;;;;;;5066370;28;20040;-69
2023/05/24 10:45:39;;;;;;;3.38;1.48;;;25.60;40.80;;;;;;5065050;28;20044;-68
2023/05/24 10:48:38;;;;;;;1.50;1.35;;;25.50;40.90;;;;;;5063938;28;20457;-66
2023/05/24 10:51:29;;;;;;;1.67;1.55;;;25.60;41.40;;;;;;5066729;28;20136;-66
2023/05/24 10:53:57;;;;;;;1.52;1.35;;;25.60;42.00;;;;;;5069277;28;20041;-67
2023/05/24 10:56:27;;;;;;;1.90;1.35;;;25.60;42.50;;;;;;5070287;28;20044;-67
2023/05/24 10:58:58;;;;;;;;;;;25.60;42.80;;;;;;5068664;28;20052;-68
2023/05/24 11:01:27;;;;;;;2.30;1.30;;;25.70;43.10;;;;;;5065902;28;19925;-66
2023/05/24 11:04:14;;;;;;;1.63;1.48;;;25.70;43.30;;;;;;5067520;28;20074;-66
2023/05/24 11:07:00;;;;;;;1.30;1.30;;;25.80;43.40;;;;;;5067527;28;20094;-67
2023/05/24 11:09:28;;;;;;;1.55;1.33;;;25.80;43.60;;;;;;5050618;28;20401;-68
2023/05/24 11:12:01;;;;;;;1.95;1.45;;;25.90;43.50;;;;;;5069863;28;20044;-66
2023/05/24 11:14:29;;;;;;;1.67;1.17;;;25.90;43.40;;;;;;5066873;28;20060;-66
2023/05/24 11:17:01;;;;;;;3.00;1.55;;;26.00;43.60;;;;;;5064104;28;20068;-66
2023/05/24 11:19:37;;;;;;;1.67;1.30;;;25.90;43.50;;;;;;5061144;28;20702;-67
2023/05/24 11:22:08;;;;;;;0.93;0.93;;;26.00;43.30;;;;;;5062681;28;20346;-67
2023/05/24 11:24:36;;;;;;;1.95;1.40;;;26.00;43.00;;;;;;5063005;28;20048;-67
2023/05/24 11:27:04;;;;;;;1.77;1.50;;;26.00;42.90;;;;;;5064992;28;20484;-68
2023/05/24 11:29:39;;;;;;;1.45;1.35;;;26.10;42.90;;;;;;5051830;28;20044;-67
2023/05/24 11:32:06;;;;;;;1.73;1.40;;;26.10;42.90;;;;;;5068060;28;20082;-61
2023/05/24 11:34:34;;;;;;;1.65;1.15;;;26.10;43.00;;;;;;5065604;28;20051;-60
2023/05/24 11:37:04;;;;;;;1.50;1.40;;;26.10;43.00;;;;;;5066225;28;20142;-59
2023/05/24 11:39:34;;;;;;;1.30;1.30;;;26.10;42.90;;;;;;5063916;28;20078;-58
2023/05/24 11:42:05;;;;;;;1.42;1.33;;;26.10;42.90;;;;;;5066440;28;20501;-57
2023/05/24 11:44:34;;;;;;;1.48;1.30;;;26.10;42.80;;;;;;5069817;28;20106;-57
2023/05/24 11:47:03;;;;;;;1.10;1.02;;;26.10;42.90;;;;;;5069765;28;20045;-58
2023/05/24 11:49:30;;;;;;;1.17;1.10;;;26.10;42.40;;;;;;5066409;28;20072;-57
2023/05/24 11:51:58;;;;;;;2.63;1.30;;;26.20;41.80;;;;;;5064361;28;20558;-58
2023/05/24 11:54:31;;;;;;;1.27;1.17;;;26.20;41.30;;;;;;5068482;28;20048;-57
2023/05/24 11:56:58;;;;;;;1.42;1.30;;;26.20;41.10;;;;;;5068207;28;20080;-58
2023/05/24 11:59:27;;;;;;;0.90;0.90;;;26.20;41.30;;;;;;5060496;28;20048;-58
2023/05/24 12:02:04;;;;;;;1.98;1.30;;;26.20;41.90;;;;;;5067069;28;20049;-59
2023/05/24 12:04:33;;;;;;;1.80;1.70;;;26.20;41.80;;;;;;5066326;28;20127;-62
2023/05/24 12:07:02;;;;;;;1.37;1.27;;;26.30;41.90;;;;;;5066449;28;20081;-62
2023/05/24 12:09:29;;;;;;;6.60;1.15;;;26.30;40.70;;;;;;5072696;28;20320;-62
2023/05/24 12:12:00;;;;;;;2.72;1.58;;;26.30;40.10;;;;;;5068380;28;20040;-64
2023/05/24 12:14:31;;;;;;;2.58;1.08;;;26.30;39.80;;;;;;5068035;28;20510;-61
2023/05/24 12:17:02;;;;;;;1.27;1.17;;;26.20;38.60;;;;;;5067607;28;20448;-64
2023/05/24 12:19:35;;;;;;;2.72;0.77;;;26.30;38.30;;;;;;5066369;28;20689;-63
2023/05/24 12:22:08;;;;;;;0.82;0.82;;;26.20;38.30;;;;;;5071256;28;20049;-64
2023/05/24 12:24:36;;;;;;;3.95;1.70;;;26.20;38.50;;;;;;5066931;28;20548;-59
2023/05/24 12:27:07;;;;;;;2.78;0.90;;;26.20;38.80;;;;;;5067550;28;20048;-60
2023/05/24 12:29:38;;;;;;;1.00;1.00;;;26.20;39.40;;;;;;5063807;28;20044;-60
2023/05/24 12:32:11;;;;;;;2.72;1.17;;;26.20;40.00;;;;;;5067572;28;20050;-60
2023/05/24 12:34:43;;;;;;;0.70;0.70;;;26.30;40.30;;;;;;5066495;28;20045;-62
2023/05/24 12:37:12;;;;;;;1.50;1.30;;;26.30;40.60;;;;;;5069818;28;20048;-62
2023/05/24 12:39:41;;;;;;;1.75;1.27;;;26.30;40.90;;;;;;5065118;28;20127;-61
2023/05/24 12:42:12;;;;;;;1.27;0.90;;;26.30;40.90;;;;;;5068047;28;20044;-61
2023/05/24 12:44:40;;;;;;;1.15;0.77;;;26.30;40.70;;;;;;5066344;28;20064;-61
2023/05/24 12:47:08;;;;;;;1.20;1.10;;;26.40;40.80;;;;;;5067873;28;20059;-61
2023/05/24 12:49:36;;;;;;;1.38;1.13;;;26.40;40.80;;;;;;5065731;28;20044;-62
2023/05/24 12:52:03;;;;;;;1.48;1.20;;;26.40;41.00;;;;;;5065046;28;20128;-60
2023/05/24 12:54:30;;;;;;;1.25;1.15;;;26.40;41.30;;;;;;5065482;28;20046;-60
2023/05/24 12:57:04;;;;;;;4.20;1.20;;;26.40;41.10;;;;;;5070141;28;20072;-59
2023/05/24 12:59:32;;;;;;;4.93;1.17;;;26.50;41.20;;;;;;5071639;28;20067;-61